Hauptseite
METAR-TAF:

METAR-TAF

Flughäfen :

Flughafen Djerba

Djerba, Tunesien

Breite: 33-52N, Länge: 010-46E, Höhe: 3 m

Beobachtung

Neuester Wetterbericht von vor 48 Minuten, um 04:00 UTC
Wind 6 kt aus Nord/Nordost
Temperatur 17°C
Luftfeuchtigkeit 88%
Luftdruck 1015 hPa
Sichtweite: 6000 m

METAR: DTTJ 260400Z 03006KT 6000 NSC 17/15 Q1015

Zeit: 05:48 (04:48 UTC)

Prognose

Neuester Wetterbericht von vor 5 Stunden und 48 Minuten, um 23:00 UTC
Gültige Prognose vom 26 um 00 UTC bis 26 um 24 UTC
Wind 4 kt aus Nordost
Sichtweite: 5000 m
Wahrscheinlichkeit 30% :
Zeitweise
vom 26 um 04 UTC bis 26 um 06 UTC
Sichtweite: 4000 m
feuchter Dunst
Übergehend zu
vom 26 um 07 UTC bis 26 um 09 UTC
Wind 14 kt aus Nord/Nordost

TAF: DTTJ 252300Z 2600/2624 05004KT 5000 NSC PROB30 TEMPO 2604/2606 4000 BR BECMG 2607/2609 02014KT

Wetterbeobachtungen und Prognosen von mehr als 4000 Flughäfen (METAR und TAF Bericht).

Die verfügbaren Stationen werden durch gelbe und rote Markierungen auf der Karte dargestellt.

Führen Sie die Maus auf sie, um den Namen der Station zu sehen.

Darauf klicken, um die Beobachtung von Wetterbeobachtungen und Prognosen zu sehen.

Um die Karte zu ändern : klicken Sie auf den grünen Tasten mit einem schwarzen Kreuz Zum Vergrößern, auf den grünen Button mit einem Gedankenstrich zu verkleinern, oder auf die grünen Pfeile für benachbarte Karten.


METAR-TAF: